Angelica, NY

1:10 PM EDT on May 30, 2015 (GMT -0400)
Sunset Bay Rushford Lake | | Change Station
CLOSE
Current Station
Personal Weather Station
Location: Caneadea, NY
Elevation: 1490 ft
Nearby Weather Stations

Elev 1490 ft 42.39 °N, 78.19 °W | Updated 39 seconds ago

Overcast
Overcast
79.0 °F
Feels Like 81 °F
N
3.2
Wind Variable Wind from WSW

Today
High -- | Low -- °F
--% Chance of Precip.
Yesterday
High -- | Low -- °F
Precip. -- in
5:39 AM 8:40 PM
Waxing Gibbous, 91% visible
Pressure 30.06 in
Visibility 10.0 miles
Clouds Scattered Clouds 3600 ft
Mostly Cloudy 4600 ft
Heat Index 81 °F
Dew Point 67 °F
Humidity 66%
Rainfall 0.00 in
Snow Depth Not available.
UV 6 out of 12
Pollen 2.70 out of 12
Air Quality Not available.
Flu Activity Sporadic
METAR KELZ 301656Z AUTO 25007G18KT 220V280 10SM SCT036 BKN046 26/17 A3010 RMK AO2 SLP179 T02610167

More Conditions Fewer Conditions

Pressure 30.06 in
Visibility 10.0 miles
Clouds Scattered Clouds 3600 ft
Mostly Cloudy 4600 ft
Heat Index 81 °F
Dew Point 67 °F
Humidity 66%
Rainfall 0.00 in
Snow Depth Not available.
UV 6 out of 12
Pollen 2.70 out of 12
Air Quality Not available.
Flu Activity Sporadic
METAR KELZ 301656Z AUTO 25007G18KT 220V280 10SM SCT036 BKN046 26/17 A3010 RMK AO2 SLP179 T02610167

More Conditions Fewer Conditions

10-Day Weather Forecast

Almanac

Astronomy

May. 30, 2015 Rise Set
Actual Time
Civil Twilight
Nautical Twilight
Astronomical Twilight
Moon
Length of Visible Light
Length of Day
Tomorrow will be .
, % of the Moon is Illuminated

Today's Extremes

State Highs State Lows

Community

WunderPhotos

Upload Photos

1,825,573 photos uploaded!

WunderBlogs® & News

Nearby

Air Quality

  Air Quality AQ Index Pollutant
Not available.

Snow Depth

Station Depth Elevation

Earthquake Activity

City Distance Mag. Time & Date
Minimum magnitude displayed is 2.5.

Coastal Water Temperatures

Place Temperature

Stations

Nearby Weather Stations

Station Location Temp. Windchill Dew Point Humidity Wind Precip. Elev Updated Type